createdAt,value
2019-04-28T00:01:21.535Z,11.96
2019-04-28T00:03:51.610Z,11.93
2019-04-28T00:06:21.259Z,11.99
2019-04-28T00:08:51.779Z,12.05
2019-04-28T00:11:21.783Z,12.04
2019-04-28T00:13:53.206Z,12.01
2019-04-28T00:16:23.004Z,11.85
2019-04-28T00:18:52.721Z,11.84
2019-04-28T00:21:37.808Z,11.83
2019-04-28T00:24:34.178Z,11.84
2019-04-28T00:27:05.716Z,11.87
2019-04-28T00:29:40.275Z,11.91
2019-04-28T00:32:06.832Z,11.86
2019-04-28T00:34:38.110Z,11.90
2019-04-28T00:37:26.544Z,11.93
2019-04-28T00:39:56.026Z,11.99
2019-04-28T00:42:25.504Z,11.96
2019-04-28T00:44:54.987Z,11.89
2019-04-28T00:47:25.058Z,11.85
2019-04-28T00:49:54.539Z,11.72
2019-04-28T00:52:23.992Z,11.64
2019-04-28T00:54:53.614Z,11.54
2019-04-28T00:57:23.069Z,11.47
2019-04-28T00:59:57.975Z,11.32
2019-04-28T01:02:42.678Z,11.26
2019-04-28T01:05:12.857Z,11.21
2019-04-28T01:07:42.341Z,11.15
2019-04-28T01:10:12.607Z,11.16
2019-04-28T01:12:42.120Z,11.16
2019-04-28T01:15:30.779Z,11.20
2019-04-28T01:18:12.680Z,11.18
2019-04-28T01:20:42.180Z,11.21
2019-04-28T01:23:11.634Z,11.28
2019-04-28T01:25:41.096Z,11.31
2019-04-28T01:28:10.606Z,11.22
2019-04-28T01:30:53.358Z,11.19
2019-04-28T01:33:44.504Z,11.23
2019-04-28T01:36:14.072Z,11.27
2019-04-28T01:38:43.572Z,11.26
2019-04-28T01:41:13.065Z,11.32
2019-04-28T01:43:42.577Z,11.32
2019-04-28T01:46:12.084Z,11.31
2019-04-28T01:48:41.548Z,11.25
2019-04-28T01:51:11.023Z,11.19
2019-04-28T01:53:40.490Z,11.19
2019-04-28T01:56:10.596Z,11.18
2019-04-28T01:58:40.412Z,11.12
2019-04-28T02:01:10.574Z,11.07
2019-04-28T02:03:40.586Z,11.04
2019-04-28T02:06:10.250Z,11.06
2019-04-28T02:08:40.020Z,10.97
2019-04-28T02:11:10.117Z,10.92
2019-04-28T02:13:39.974Z,10.93
2019-04-28T02:16:09.788Z,10.89
2019-04-28T02:18:40.001Z,10.92
2019-04-28T02:21:31.262Z,10.92
2019-04-28T02:24:19.394Z,10.87
2019-04-28T02:26:50.385Z,10.96
2019-04-28T02:29:20.293Z,11.05
2019-04-28T02:31:51.005Z,11.18
2019-04-28T02:34:21.279Z,11.27
2019-04-28T02:36:53.914Z,11.39
2019-04-28T02:39:22.204Z,11.46
2019-04-28T02:41:51.677Z,11.49
2019-04-28T02:44:23.590Z,11.43
2019-04-28T02:46:52.419Z,11.42
2019-04-28T02:49:30.762Z,11.38
2019-04-28T02:52:25.219Z,11.25
2019-04-28T02:54:54.748Z,11.20
2019-04-28T02:57:24.201Z,11.24
2019-04-28T02:59:53.686Z,11.34
2019-04-28T03:02:23.185Z,11.37
2019-04-28T03:04:52.662Z,11.44
2019-04-28T03:07:22.152Z,11.48
2019-04-28T03:09:52.161Z,11.47
2019-04-28T03:12:22.006Z,11.43
2019-04-28T03:14:51.474Z,11.39
2019-04-28T03:17:21.150Z,11.38
2019-04-28T03:19:51.622Z,11.30
2019-04-28T03:22:21.408Z,11.26
2019-04-28T03:24:52.523Z,11.19
2019-04-28T03:27:30.983Z,11.11
2019-04-28T03:30:18.318Z,11.03
2019-04-28T03:32:58.330Z,11.00
2019-04-28T03:35:22.915Z,10.96
2019-04-28T03:37:51.383Z,10.90
2019-04-28T03:40:21.229Z,10.91
2019-04-28T03:42:51.451Z,10.87
2019-04-28T03:45:26.794Z,10.87
2019-04-28T03:47:56.283Z,10.84
2019-04-28T03:50:25.869Z,10.84
2019-04-28T03:52:55.325Z,10.91
2019-04-28T03:55:24.798Z,10.92
2019-04-28T03:57:54.255Z,10.96
2019-04-28T04:00:23.726Z,11.01
2019-04-28T04:02:53.236Z,11.07
2019-04-28T04:05:22.752Z,11.13
2019-04-28T04:07:52.246Z,11.17
2019-04-28T04:10:50.158Z,11.17
2019-04-28T04:13:36.949Z,11.19
2019-04-28T04:16:24.330Z,11.24
2019-04-28T04:18:55.387Z,11.26
2019-04-28T04:21:24.867Z,11.28
2019-04-28T04:23:54.374Z,11.28
2019-04-28T04:26:23.814Z,11.33
2019-04-28T04:28:53.309Z,11.92
2019-04-28T04:31:22.794Z,12.61
2019-04-28T04:33:52.272Z,13.52
2019-04-28T04:36:21.747Z,14.45
2019-04-28T04:38:51.795Z,15.30
2019-04-28T04:41:21.493Z,16.08
2019-04-28T04:43:51.483Z,16.63
2019-04-28T04:46:23.384Z,17.15
2019-04-28T04:48:53.074Z,17.76
2019-04-28T04:51:22.530Z,18.34
2019-04-28T04:53:52.212Z,18.62
2019-04-28T04:56:21.854Z,18.42
2019-04-28T04:58:51.451Z,18.31
2019-04-28T05:01:46.078Z,18.22
2019-04-28T05:04:34.458Z,18.10
2019-04-28T05:07:03.934Z,17.63
2019-04-28T05:09:33.401Z,17.45
2019-04-28T05:12:02.883Z,17.37
2019-04-28T05:14:32.371Z,17.14
2019-04-28T05:17:01.836Z,16.58
2019-04-28T05:19:31.307Z,15.91
2019-04-28T05:22:00.857Z,15.54
2019-04-28T05:24:46.365Z,15.02
2019-04-28T05:27:17.362Z,14.69
2019-04-28T05:29:47.245Z,14.66
2019-04-28T05:32:16.715Z,14.51
2019-04-28T05:34:47.024Z,14.14
2019-04-28T05:37:19.357Z,13.96
2019-04-28T05:39:49.678Z,13.99
2019-04-28T05:42:20.149Z,13.99
2019-04-28T05:44:49.993Z,14.02
2019-04-28T05:47:20.313Z,13.70
2019-04-28T05:50:00.226Z,13.54
2019-04-28T05:52:51.565Z,13.43
2019-04-28T05:55:25.529Z,13.28
2019-04-28T05:58:13.951Z,13.10
2019-04-28T06:01:01.293Z,13.12
2019-04-28T06:03:31.561Z,13.15
2019-04-28T06:06:01.129Z,13.24
2019-04-28T06:08:40.776Z,13.09
2019-04-28T06:11:30.226Z,12.94
2019-04-28T06:13:59.996Z,12.95
2019-04-28T06:16:30.465Z,12.93
2019-04-28T06:19:00.328Z,12.89
2019-04-28T06:21:29.936Z,12.84
2019-04-28T06:23:59.544Z,12.92
2019-04-28T06:26:29.188Z,12.96
2019-04-28T06:28:58.802Z,12.92
2019-04-28T06:31:28.459Z,12.95
2019-04-28T06:33:58.230Z,12.94
2019-04-28T06:36:27.725Z,12.96
2019-04-28T06:38:57.300Z,13.00
2019-04-28T06:41:26.920Z,13.11
2019-04-28T06:43:56.487Z,13.13
2019-04-28T06:46:26.025Z,13.18
2019-04-28T06:48:55.757Z,13.22
2019-04-28T06:51:25.322Z,13.33
2019-04-28T06:53:54.871Z,13.35
2019-04-28T06:56:24.347Z,13.44
2019-04-28T06:58:59.167Z,13.45
2019-04-28T07:01:25.085Z,13.51
2019-04-28T07:03:54.598Z,13.53
2019-04-28T07:06:24.076Z,13.54
2019-04-28T07:08:53.846Z,13.64
2019-04-28T07:11:23.324Z,13.69
2019-04-28T07:13:52.900Z,13.75
2019-04-28T07:16:22.689Z,13.88
2019-04-28T07:18:52.269Z,13.98
2019-04-28T07:21:35.676Z,13.91
2019-04-28T07:24:05.393Z,13.86
2019-04-28T07:26:34.877Z,13.88
2019-04-28T07:29:04.460Z,13.78
2019-04-28T07:31:33.996Z,13.82
2019-04-28T07:34:03.428Z,13.79
2019-04-28T07:36:32.903Z,13.86
2019-04-28T07:39:02.461Z,13.81
2019-04-28T07:41:32.020Z,13.86
2019-04-28T07:44:01.652Z,13.92
2019-04-28T07:46:31.215Z,14.08
2019-04-28T07:49:00.865Z,14.07
2019-04-28T07:51:40.617Z,14.09
2019-04-28T07:54:10.957Z,14.11
2019-04-28T07:56:40.529Z,14.17
2019-04-28T07:59:10.092Z,14.05
2019-04-28T08:01:39.700Z,14.25
2019-04-28T08:04:09.301Z,14.34
2019-04-28T08:06:38.958Z,14.28
2019-04-28T08:09:10.653Z,14.37
2019-04-28T08:11:40.333Z,14.52
2019-04-28T08:14:09.771Z,14.60
2019-04-28T08:16:39.240Z,14.56
2019-04-28T08:19:08.801Z,14.59
2019-04-28T08:21:38.281Z,14.64
2019-04-28T08:24:07.775Z,14.67
2019-04-28T08:26:37.252Z,14.67
2019-04-28T08:29:06.779Z,14.66
2019-04-28T08:31:47.598Z,14.65
2019-04-28T08:34:17.946Z,14.69
2019-04-28T08:36:47.442Z,14.85
2019-04-28T08:39:17.009Z,14.92
2019-04-28T08:41:46.479Z,14.96
2019-04-28T08:44:16.056Z,15.07
2019-04-28T08:46:45.650Z,15.18
2019-04-28T08:49:15.260Z,15.27
2019-04-28T08:51:44.748Z,15.25
2019-04-28T08:54:14.285Z,15.46
2019-04-28T08:56:43.890Z,15.66
2019-04-28T08:59:13.408Z,15.73
2019-04-28T09:01:43.118Z,15.52
2019-04-28T09:04:15.429Z,15.33
2019-04-28T09:06:44.407Z,15.23
2019-04-28T09:09:18.170Z,15.36
2019-04-28T09:11:47.917Z,15.53
2019-04-28T09:14:17.472Z,15.52
2019-04-28T09:16:47.039Z,15.77
2019-04-28T09:19:16.659Z,16.03
2019-04-28T09:21:46.161Z,16.09
2019-04-28T09:24:15.704Z,16.18
2019-04-28T09:26:45.250Z,16.23
2019-04-28T09:29:14.757Z,16.27
2019-04-28T09:31:44.237Z,16.16
2019-04-28T09:34:14.017Z,15.97
2019-04-28T09:36:43.526Z,15.80
2019-04-28T09:39:14.667Z,15.72
2019-04-28T09:41:50.098Z,15.86
2019-04-28T09:44:19.836Z,16.04
2019-04-28T09:46:49.795Z,15.92
2019-04-28T09:49:22.405Z,15.85
2019-04-28T09:51:51.962Z,15.70
2019-04-28T09:54:21.467Z,15.68
2019-04-28T09:56:56.966Z,15.66
2019-04-28T09:59:22.111Z,15.70
2019-04-28T10:01:51.659Z,15.71
2019-04-28T10:04:21.113Z,15.48
2019-04-28T10:06:50.575Z,15.48
2019-04-28T10:09:20.217Z,15.49
2019-04-28T10:11:49.767Z,15.44
2019-04-28T10:14:19.334Z,15.36
2019-04-28T10:16:48.864Z,15.43
2019-04-28T10:19:18.299Z,15.48
2019-04-28T10:21:47.881Z,15.70
2019-04-28T10:24:17.450Z,16.04
2019-04-28T10:26:46.950Z,16.01
2019-04-28T10:29:16.417Z,15.94
2019-04-28T10:31:45.872Z,15.93
2019-04-28T10:34:15.386Z,15.94
2019-04-28T10:36:44.856Z,16.02
2019-04-28T10:39:24.072Z,15.84
2019-04-28T10:41:53.810Z,15.69
2019-04-28T10:44:24.267Z,15.86
2019-04-28T10:46:53.912Z,16.00
2019-04-28T10:49:23.723Z,16.02
2019-04-28T10:51:59.439Z,16.15
2019-04-28T10:54:24.404Z,16.17
2019-04-28T10:56:53.866Z,16.19
2019-04-28T10:59:23.344Z,16.08
2019-04-28T11:01:52.984Z,16.01
2019-04-28T11:04:40.247Z,16.07
2019-04-28T11:07:11.150Z,15.85
2019-04-28T11:09:44.992Z,15.77
2019-04-28T11:12:20.490Z,15.68
2019-04-28T11:14:50.008Z,15.82
2019-04-28T11:17:19.973Z,15.92
2019-04-28T11:19:49.464Z,16.00
2019-04-28T11:22:19.085Z,16.11
2019-04-28T11:24:48.922Z,16.08
2019-04-28T11:27:18.569Z,15.98
2019-04-28T11:29:48.156Z,15.97
2019-04-28T11:32:17.804Z,15.97
2019-04-28T11:35:02.218Z,16.03
2019-04-28T11:37:31.703Z,16.04
2019-04-28T11:40:01.149Z,16.05
2019-04-28T11:42:30.674Z,16.19
2019-04-28T11:45:00.226Z,16.50
2019-04-28T11:47:29.753Z,16.93
2019-04-28T11:49:59.261Z,16.99
2019-04-28T11:52:28.743Z,16.78
2019-04-28T11:54:58.405Z,16.66
2019-04-28T11:57:27.868Z,16.66
2019-04-28T11:59:57.370Z,16.82
2019-04-28T12:02:26.840Z,17.07
2019-04-28T12:04:57.967Z,17.25
2019-04-28T12:07:27.502Z,17.30
2019-04-28T12:10:06.431Z,17.10
2019-04-28T12:12:43.313Z,17.05
2019-04-28T12:15:30.405Z,17.20
2019-04-28T12:18:17.864Z,17.42
2019-04-28T12:20:47.466Z,17.37
2019-04-28T12:23:16.946Z,17.45
2019-04-28T12:25:46.415Z,17.48
2019-04-28T12:28:15.871Z,17.53
2019-04-28T12:30:45.446Z,17.54
2019-04-28T12:33:14.947Z,17.65
2019-04-28T12:35:47.998Z,17.79
2019-04-28T12:38:15.732Z,17.86
2019-04-28T12:40:45.220Z,17.89
2019-04-28T12:43:14.706Z,17.77
2019-04-28T12:45:44.181Z,17.60
2019-04-28T12:48:13.707Z,17.53
2019-04-28T12:50:49.911Z,17.63
2019-04-28T12:53:19.483Z,17.38
2019-04-28T12:55:48.958Z,17.21
2019-04-28T12:58:18.416Z,17.34
2019-04-28T13:01:05.522Z,17.36
2019-04-28T13:03:45.317Z,17.41
2019-04-28T13:06:16.572Z,17.53
2019-04-28T13:08:46.044Z,17.64
2019-04-28T13:11:15.536Z,17.88
2019-04-28T13:13:46.845Z,18.03
2019-04-28T13:16:16.279Z,17.94
2019-04-28T13:18:45.770Z,17.87
2019-04-28T13:21:15.229Z,17.98
2019-04-28T13:23:44.752Z,18.02
2019-04-28T13:26:14.232Z,18.03
2019-04-28T13:28:43.756Z,18.00
2019-04-28T13:31:13.229Z,17.83
2019-04-28T13:33:56.006Z,17.84
2019-04-28T13:36:15.246Z,17.85
2019-04-28T13:38:44.923Z,17.90
2019-04-28T13:41:14.507Z,17.78
2019-04-28T13:43:43.985Z,17.57
2019-04-28T13:46:13.522Z,17.53
2019-04-28T13:48:43.099Z,17.48
2019-04-28T13:51:12.662Z,17.68
2019-04-28T13:53:42.190Z,17.99
2019-04-28T13:56:11.645Z,18.10
2019-04-28T13:59:05.013Z,18.33
2019-04-28T14:01:56.775Z,18.32
2019-04-28T14:04:35.941Z,18.23
2019-04-28T14:07:06.749Z,18.21
2019-04-28T14:09:38.481Z,18.19
2019-04-28T14:12:07.448Z,18.16
2019-04-28T14:14:36.949Z,18.28
2019-04-28T14:17:06.448Z,18.30
2019-04-28T14:19:36.033Z,18.26
2019-04-28T14:22:05.594Z,18.08
2019-04-28T14:24:35.087Z,18.01
2019-04-28T14:27:04.643Z,17.99
2019-04-28T14:29:34.165Z,18.00
2019-04-28T14:32:03.670Z,17.99
2019-04-28T14:34:33.215Z,17.97
2019-04-28T14:37:02.635Z,17.93
2019-04-28T14:39:32.103Z,18.02
2019-04-28T14:42:01.636Z,18.05
2019-04-28T14:44:31.160Z,18.07
2019-04-28T14:47:00.699Z,18.03
2019-04-28T14:49:30.296Z,17.98
2019-04-28T14:51:59.921Z,17.95
2019-04-28T14:54:29.454Z,17.86
2019-04-28T14:56:58.994Z,17.84
2019-04-28T14:59:28.529Z,17.81
2019-04-28T15:02:20.232Z,17.81
2019-04-28T15:05:11.941Z,17.89
2019-04-28T15:07:58.710Z,17.96
2019-04-28T15:10:37.246Z,17.90
2019-04-28T15:13:06.762Z,17.75
2019-04-28T15:15:36.300Z,17.74
2019-04-28T15:18:05.861Z,17.63
2019-04-28T15:20:35.331Z,17.66
2019-04-28T15:23:04.821Z,17.79
2019-04-28T15:25:34.492Z,17.93
2019-04-28T15:28:03.953Z,17.93
2019-04-28T15:30:33.454Z,17.90
2019-04-28T15:33:02.966Z,17.81
2019-04-28T15:35:32.537Z,17.85
2019-04-28T15:38:02.092Z,17.94
2019-04-28T15:40:31.724Z,17.99
2019-04-28T15:43:01.287Z,17.92
2019-04-28T15:45:33.211Z,17.91
2019-04-28T15:48:02.726Z,17.89
2019-04-28T15:50:32.224Z,17.84
2019-04-28T15:53:01.843Z,17.85
2019-04-28T15:55:37.581Z,17.86
2019-04-28T15:58:25.032Z,17.84
2019-04-28T16:00:54.559Z,17.84
2019-04-28T16:03:24.055Z,17.67
2019-04-28T16:05:53.559Z,17.61
2019-04-28T16:08:23.058Z,17.60
2019-04-28T16:10:52.571Z,17.65
2019-04-28T16:13:22.070Z,17.71
2019-04-28T16:15:51.540Z,17.70
2019-04-28T16:18:21.011Z,17.68
2019-04-28T16:20:50.492Z,17.73
2019-04-28T16:23:19.985Z,17.72
2019-04-28T16:25:49.437Z,17.64
2019-04-28T16:28:18.931Z,17.62
2019-04-28T16:30:48.400Z,17.62
2019-04-28T16:33:17.860Z,17.65
2019-04-28T16:35:47.346Z,17.66
2019-04-28T16:38:16.837Z,17.59
2019-04-28T16:40:56.100Z,17.54
2019-04-28T16:43:29.136Z,17.50
2019-04-28T16:45:58.606Z,17.48
2019-04-28T16:48:28.121Z,17.49
2019-04-28T16:50:57.605Z,17.43
2019-04-28T16:53:27.069Z,17.29
2019-04-28T16:56:18.516Z,17.17
2019-04-28T16:59:22.257Z,17.04
2019-04-28T17:02:01.904Z,16.89
2019-04-28T17:04:31.388Z,16.79
2019-04-28T17:07:00.899Z,16.77
2019-04-28T17:09:30.466Z,16.79
2019-04-28T17:12:00.003Z,16.81
2019-04-28T17:14:29.483Z,16.85
2019-04-28T17:16:58.986Z,16.85
2019-04-28T17:19:28.570Z,16.81
2019-04-28T17:21:58.151Z,16.78
2019-04-28T17:24:27.686Z,16.65
2019-04-28T17:26:57.175Z,16.58
2019-04-28T17:29:26.660Z,16.55
2019-04-28T17:31:56.166Z,16.59
2019-04-28T17:34:25.672Z,16.56
2019-04-28T17:36:55.169Z,16.57
2019-04-28T17:39:25.899Z,16.57
2019-04-28T17:41:55.418Z,16.59
2019-04-28T17:44:24.957Z,16.59
2019-04-28T17:46:54.590Z,16.56
2019-04-28T17:49:30.220Z,16.55
2019-04-28T17:51:59.771Z,16.32
2019-04-28T17:54:29.399Z,16.19
2019-04-28T17:56:58.936Z,16.00
2019-04-28T17:59:28.442Z,15.86
2019-04-28T18:02:32.268Z,15.81
2019-04-28T18:05:24.121Z,15.82
2019-04-28T18:07:58.106Z,15.81
2019-04-28T18:10:28.208Z,15.80
2019-04-28T18:13:00.539Z,15.70
2019-04-28T18:15:56.814Z,15.66
2019-04-28T18:18:31.311Z,15.56
2019-04-28T18:21:00.785Z,15.50
2019-04-28T18:23:30.266Z,15.43
2019-04-28T18:25:59.769Z,15.34
2019-04-28T18:28:29.232Z,15.30
2019-04-28T18:31:36.133Z,15.24
2019-04-28T18:34:27.374Z,15.19
2019-04-28T18:37:15.745Z,15.02
2019-04-28T18:40:06.804Z,15.00
2019-04-28T18:42:58.125Z,14.84
2019-04-28T18:45:27.592Z,14.80
2019-04-28T18:47:57.169Z,14.77
2019-04-28T18:50:26.650Z,14.78
2019-04-28T18:52:56.137Z,14.84
2019-04-28T18:55:25.611Z,14.84
2019-04-28T18:57:55.103Z,14.79
2019-04-28T19:00:26.421Z,14.83
2019-04-28T19:02:55.924Z,14.83
2019-04-28T19:05:27.887Z,14.85
2019-04-28T19:08:16.302Z,14.85
2019-04-28T19:11:27.010Z,14.87
2019-04-28T19:14:37.734Z,14.86
2019-04-28T19:17:52.021Z,14.84
2019-04-28T19:20:34.391Z,14.79
2019-04-28T19:23:23.552Z,14.77
2019-04-28T19:26:06.601Z,14.78
2019-04-28T19:28:42.067Z,14.81
2019-04-28T19:31:18.801Z,14.78
2019-04-28T19:33:48.375Z,14.67
2019-04-28T19:36:17.910Z,14.59
2019-04-28T19:38:47.467Z,14.59
2019-04-28T19:41:16.950Z,14.61
2019-04-28T19:43:46.456Z,14.60
2019-04-28T19:46:17.621Z,14.59
2019-04-28T19:48:47.134Z,14.48
2019-04-28T19:51:31.172Z,14.33
2019-04-28T19:53:49.899Z,14.23
2019-04-28T19:56:26.695Z,14.14
2019-04-28T19:59:01.486Z,14.10
2019-04-28T20:01:31.658Z,14.01
2019-04-28T20:04:01.139Z,13.86
2019-04-28T20:06:30.740Z,13.77
2019-04-28T20:09:00.208Z,13.68
2019-04-28T20:11:29.759Z,13.56
2019-04-28T20:13:59.231Z,13.51
2019-04-28T20:16:28.731Z,13.55
2019-04-28T20:18:58.192Z,13.54
2019-04-28T20:21:27.637Z,13.48
2019-04-28T20:23:57.161Z,13.47
2019-04-28T20:26:26.640Z,13.48
2019-04-28T20:28:56.145Z,13.43
2019-04-28T20:31:25.606Z,13.32
2019-04-28T20:33:55.193Z,13.30
2019-04-28T20:36:37.732Z,13.26
2019-04-28T20:39:11.754Z,13.27
2019-04-28T20:41:41.259Z,13.28
2019-04-28T20:44:10.721Z,13.31
2019-04-28T20:46:40.215Z,13.26
2019-04-28T20:49:09.720Z,13.24
2019-04-28T20:51:39.211Z,13.22
2019-04-28T20:54:08.689Z,13.19
2019-04-28T20:56:38.138Z,13.20
2019-04-28T20:59:07.600Z,13.22
2019-04-28T21:01:37.090Z,13.27
2019-04-28T21:04:06.572Z,13.26
2019-04-28T21:06:36.033Z,13.23
2019-04-28T21:09:09.600Z,13.18
2019-04-28T21:11:38.787Z,13.20
2019-04-28T21:14:08.281Z,13.15
2019-04-28T21:16:37.768Z,13.12
2019-04-28T21:19:07.253Z,13.12
2019-04-28T21:21:36.731Z,13.14
2019-04-28T21:24:06.218Z,13.06
2019-04-28T21:26:35.690Z,13.01
2019-04-28T21:29:05.201Z,12.97
2019-04-28T21:31:34.690Z,12.91
2019-04-28T21:34:04.211Z,12.88
2019-04-28T21:36:33.682Z,12.78
2019-04-28T21:39:03.156Z,12.68
2019-04-28T21:41:32.627Z,12.59
2019-04-28T21:44:24.352Z,12.59
2019-04-28T21:47:01.753Z,12.69
2019-04-28T21:49:33.114Z,12.78
2019-04-28T21:52:02.598Z,12.82
2019-04-28T21:54:32.068Z,12.79
2019-04-28T21:57:01.595Z,12.75
2019-04-28T21:59:31.073Z,12.80
2019-04-28T22:02:00.647Z,12.87
2019-04-28T22:04:30.166Z,12.90
2019-04-28T22:06:59.619Z,12.94
2019-04-28T22:09:29.105Z,12.91
2019-04-28T22:11:58.585Z,12.87
2019-04-28T22:14:29.851Z,12.80
2019-04-28T22:16:59.400Z,12.73
2019-04-28T22:19:28.916Z,12.62
2019-04-28T22:21:58.379Z,12.57
2019-04-28T22:24:33.382Z,12.49
2019-04-28T22:27:02.892Z,12.50
2019-04-28T22:29:32.373Z,12.51
2019-04-28T22:32:01.863Z,12.48
2019-04-28T22:34:31.343Z,12.43
2019-04-28T22:37:00.818Z,12.42
2019-04-28T22:39:30.282Z,12.49
2019-04-28T22:41:59.762Z,12.49
2019-04-28T22:44:29.259Z,12.43
2019-04-28T22:46:58.701Z,12.43
2019-04-28T22:49:28.188Z,12.38
2019-04-28T22:51:57.645Z,12.33
2019-04-28T22:54:37.193Z,12.29
2019-04-28T22:57:28.656Z,12.21
2019-04-28T22:59:58.661Z,12.24
2019-04-28T23:02:28.183Z,12.23
2019-04-28T23:05:03.310Z,12.25
2019-04-28T23:07:32.805Z,12.19
2019-04-28T23:10:03.090Z,12.14
2019-04-28T23:12:32.543Z,12.10
2019-04-28T23:15:02.041Z,12.05
2019-04-28T23:17:31.522Z,12.05
2019-04-28T23:20:00.984Z,12.07
2019-04-28T23:22:46.665Z,12.08
2019-04-28T23:25:09.109Z,12.08
2019-04-28T23:27:38.585Z,12.06
2019-04-28T23:30:09.152Z,12.06
2019-04-28T23:32:38.633Z,12.05
2019-04-28T23:35:08.312Z,12.09
2019-04-28T23:37:37.750Z,12.07
2019-04-28T23:40:07.889Z,12.10
2019-04-28T23:43:00.667Z,12.13
2019-04-28T23:45:30.157Z,12.22
2019-04-28T23:47:59.620Z,12.28
2019-04-28T23:50:35.662Z,12.27
2019-04-28T23:53:08.404Z,12.26
2019-04-28T23:55:37.873Z,12.25
2019-04-28T23:58:07.346Z,12.26
